sensor_id;sensor_type;location;lat;lon;timestamp;temperature;humidity
36002;DHT22;22070;50.922;5.430;2023-03-17T00:00:48;11.40;99.90
36002;DHT22;22070;50.922;5.430;2023-03-17T00:03:25;11.40;99.90
36002;DHT22;22070;50.922;5.430;2023-03-17T00:05:53;11.40;99.90
36002;DHT22;22070;50.922;5.430;2023-03-17T00:08:54;11.30;99.90
36002;DHT22;22070;50.922;5.430;2023-03-17T00:11:14;11.40;99.90
36002;DHT22;22070;50.922;5.430;2023-03-17T00:13:41;11.40;99.90
36002;DHT22;22070;50.922;5.430;2023-03-17T00:16:16;11.40;99.90
36002;DHT22;22070;50.922;5.430;2023-03-17T00:18:42;11.40;99.90
36002;DHT22;22070;50.922;5.430;2023-03-17T00:21:16;11.40;99.90
36002;DHT22;22070;50.922;5.430;2023-03-17T00:23:48;11.30;99.90
36002;DHT22;22070;50.922;5.430;2023-03-17T00:26:15;11.30;99.90
36002;DHT22;22070;50.922;5.430;2023-03-17T00:28:41;11.30;99.90
36002;DHT22;22070;50.922;5.430;2023-03-17T00:31:15;11.20;99.90
36002;DHT22;22070;50.922;5.430;2023-03-17T00:33:43;11.30;99.90
36002;DHT22;22070;50.922;5.430;2023-03-17T00:36:21;11.30;99.90
36002;DHT22;22070;50.922;5.430;2023-03-17T00:38:48;11.20;99.90
36002;DHT22;22070;50.922;5.430;2023-03-17T00:41:14;11.20;99.90
36002;DHT22;22070;50.922;5.430;2023-03-17T00:43:40;11.30;99.90
36002;DHT22;22070;50.922;5.430;2023-03-17T00:46:12;11.30;99.90
36002;DHT22;22070;50.922;5.430;2023-03-17T00:48:42;11.30;99.90
36002;DHT22;22070;50.922;5.430;2023-03-17T00:51:08;11.40;99.90
36002;DHT22;22070;50.922;5.430;2023-03-17T00:53:34;11.40;99.90
36002;DHT22;22070;50.922;5.430;2023-03-17T00:56:00;11.30;99.90
36002;DHT22;22070;50.922;5.430;2023-03-17T00:58:31;11.30;99.90
36002;DHT22;22070;50.922;5.430;2023-03-17T01:00:58;11.20;99.90
36002;DHT22;22070;50.922;5.430;2023-03-17T01:03:24;11.20;99.90
36002;DHT22;22070;50.922;5.430;2023-03-17T01:05:51;11.20;99.90
36002;DHT22;22070;50.922;5.430;2023-03-17T01:08:19;11.10;99.90
36002;DHT22;22070;50.922;5.430;2023-03-17T01:10:45;11.00;99.90
36002;DHT22;22070;50.922;5.430;2023-03-17T01:13:13;10.90;99.90
36002;DHT22;22070;50.922;5.430;2023-03-17T01:15:43;11.00;99.90
36002;DHT22;22070;50.922;5.430;2023-03-17T01:18:11;10.90;99.90
36002;DHT22;22070;50.922;5.430;2023-03-17T01:20:37;10.90;99.90
36002;DHT22;22070;50.922;5.430;2023-03-17T01:23:04;10.90;99.90
36002;DHT22;22070;50.922;5.430;2023-03-17T01:25:30;11.00;99.90
36002;DHT22;22070;50.922;5.430;2023-03-17T01:27:57;11.00;99.90
36002;DHT22;22070;50.922;5.430;2023-03-17T01:30:36;10.90;99.90
36002;DHT22;22070;50.922;5.430;2023-03-17T01:33:04;10.90;99.90
36002;DHT22;22070;50.922;5.430;2023-03-17T01:35:31;10.80;99.90
36002;DHT22;22070;50.922;5.430;2023-03-17T01:37:57;10.90;99.90
36002;DHT22;22070;50.922;5.430;2023-03-17T01:40:35;10.80;99.90
36002;DHT22;22070;50.922;5.430;2023-03-17T01:43:17;10.80;99.90
36002;DHT22;22070;50.922;5.430;2023-03-17T01:54:41;10.70;99.90
36002;DHT22;22070;50.922;5.430;2023-03-17T01:59:52;10.60;99.90
36002;DHT22;22070;50.922;5.430;2023-03-17T02:02:27;10.60;99.90
36002;DHT22;22070;50.922;5.430;2023-03-17T02:04:56;10.60;99.90
36002;DHT22;22070;50.922;5.430;2023-03-17T02:07:23;10.50;99.90
36002;DHT22;22070;50.922;5.430;2023-03-17T02:09:51;10.60;99.90
36002;DHT22;22070;50.922;5.430;2023-03-17T02:12:17;10.60;99.90
36002;DHT22;22070;50.922;5.430;2023-03-17T02:14:43;10.50;99.90
36002;DHT22;22070;50.922;5.430;2023-03-17T02:17:09;10.50;99.90
36002;DHT22;22070;50.922;5.430;2023-03-17T02:19:35;10.50;99.90
36002;DHT22;22070;50.922;5.430;2023-03-17T02:22:00;10.40;99.90
36002;DHT22;22070;50.922;5.430;2023-03-17T02:24:38;10.40;99.90
36002;DHT22;22070;50.922;5.430;2023-03-17T02:29:37;10.50;99.90
36002;DHT22;22070;50.922;5.430;2023-03-17T02:32:04;10.40;99.90
36002;DHT22;22070;50.922;5.430;2023-03-17T02:34:31;10.40;99.90
36002;DHT22;22070;50.922;5.430;2023-03-17T02:36:57;10.50;99.90
36002;DHT22;22070;50.922;5.430;2023-03-17T02:39:23;10.50;99.90
36002;DHT22;22070;50.922;5.430;2023-03-17T02:41:49;10.40;99.90
36002;DHT22;22070;50.922;5.430;2023-03-17T02:44:16;10.40;99.90
36002;DHT22;22070;50.922;5.430;2023-03-17T02:46:42;10.40;99.90
36002;DHT22;22070;50.922;5.430;2023-03-17T02:49:08;10.40;99.90
36002;DHT22;22070;50.922;5.430;2023-03-17T02:51:34;10.40;99.90
36002;DHT22;22070;50.922;5.430;2023-03-17T02:54:00;10.40;99.90
36002;DHT22;22070;50.922;5.430;2023-03-17T02:56:25;10.40;99.90
36002;DHT22;22070;50.922;5.430;2023-03-17T02:58:51;10.30;99.90
36002;DHT22;22070;50.922;5.430;2023-03-17T03:01:17;10.30;99.90
36002;DHT22;22070;50.922;5.430;2023-03-17T03:03:43;10.30;99.90
36002;DHT22;22070;50.922;5.430;2023-03-17T03:06:09;10.30;99.90
36002;DHT22;22070;50.922;5.430;2023-03-17T03:08:34;10.30;99.90
36002;DHT22;22070;50.922;5.430;2023-03-17T03:11:01;10.30;99.90
36002;DHT22;22070;50.922;5.430;2023-03-17T03:13:27;10.40;99.90
36002;DHT22;22070;50.922;5.430;2023-03-17T03:15:53;10.40;99.90
36002;DHT22;22070;50.922;5.430;2023-03-17T03:18:19;10.40;99.90
36002;DHT22;22070;50.922;5.430;2023-03-17T03:20:45;10.30;99.90
36002;DHT22;22070;50.922;5.430;2023-03-17T03:23:11;10.30;99.90
36002;DHT22;22070;50.922;5.430;2023-03-17T03:25:37;10.30;99.90
36002;DHT22;22070;50.922;5.430;2023-03-17T03:28:07;10.40;99.90
36002;DHT22;22070;50.922;5.430;2023-03-17T03:30:35;10.40;99.90
36002;DHT22;22070;50.922;5.430;2023-03-17T03:33:01;10.40;99.90
36002;DHT22;22070;50.922;5.430;2023-03-17T03:35:28;10.50;99.90
36002;DHT22;22070;50.922;5.430;2023-03-17T03:37:54;10.40;99.90
36002;DHT22;22070;50.922;5.430;2023-03-17T03:40:21;10.40;99.90
36002;DHT22;22070;50.922;5.430;2023-03-17T03:42:47;10.40;99.90
36002;DHT22;22070;50.922;5.430;2023-03-17T03:45:13;10.30;99.90
36002;DHT22;22070;50.922;5.430;2023-03-17T03:47:38;10.40;99.90
36002;DHT22;22070;50.922;5.430;2023-03-17T03:50:05;10.40;99.90
36002;DHT22;22070;50.922;5.430;2023-03-17T03:52:31;10.40;99.90
36002;DHT22;22070;50.922;5.430;2023-03-17T03:54:57;10.50;99.90
36002;DHT22;22070;50.922;5.430;2023-03-17T03:57:22;10.40;99.90
36002;DHT22;22070;50.922;5.430;2023-03-17T03:59:48;10.30;99.90
36002;DHT22;22070;50.922;5.430;2023-03-17T04:02:14;10.40;99.90
36002;DHT22;22070;50.922;5.430;2023-03-17T04:04:41;10.40;99.90
36002;DHT22;22070;50.922;5.430;2023-03-17T04:07:07;10.40;99.90
36002;DHT22;22070;50.922;5.430;2023-03-17T04:09:34;10.40;99.90
36002;DHT22;22070;50.922;5.430;2023-03-17T04:12:01;10.40;99.90
36002;DHT22;22070;50.922;5.430;2023-03-17T04:14:27;10.50;99.90
36002;DHT22;22070;50.922;5.430;2023-03-17T04:16:53;10.50;99.90
36002;DHT22;22070;50.922;5.430;2023-03-17T04:19:18;10.40;99.90
36002;DHT22;22070;50.922;5.430;2023-03-17T04:21:46;10.30;99.90
36002;DHT22;22070;50.922;5.430;2023-03-17T04:24:13;10.30;99.90
36002;DHT22;22070;50.922;5.430;2023-03-17T04:26:39;10.30;99.90
36002;DHT22;22070;50.922;5.430;2023-03-17T04:29:06;10.20;99.90
36002;DHT22;22070;50.922;5.430;2023-03-17T04:31:35;10.30;99.90
36002;DHT22;22070;50.922;5.430;2023-03-17T04:34:01;10.30;99.90
36002;DHT22;22070;50.922;5.430;2023-03-17T04:36:27;10.30;99.90
36002;DHT22;22070;50.922;5.430;2023-03-17T04:38:53;10.30;99.90
36002;DHT22;22070;50.922;5.430;2023-03-17T04:41:19;10.30;99.90
36002;DHT22;22070;50.922;5.430;2023-03-17T04:43:45;10.20;99.90
36002;DHT22;22070;50.922;5.430;2023-03-17T04:46:11;10.20;99.90
36002;DHT22;22070;50.922;5.430;2023-03-17T04:48:37;10.20;99.90
36002;DHT22;22070;50.922;5.430;2023-03-17T04:51:03;10.20;99.90
36002;DHT22;22070;50.922;5.430;2023-03-17T04:53:29;10.10;99.90
36002;DHT22;22070;50.922;5.430;2023-03-17T04:55:55;10.00;99.90
36002;DHT22;22070;50.922;5.430;2023-03-17T04:58:21;10.00;99.90
36002;DHT22;22070;50.922;5.430;2023-03-17T05:00:46;10.00;99.90
36002;DHT22;22070;50.922;5.430;2023-03-17T05:03:12;10.00;99.90
36002;DHT22;22070;50.922;5.430;2023-03-17T05:05:38;10.00;99.90
36002;DHT22;22070;50.922;5.430;2023-03-17T05:08:04;9.90;99.90
36002;DHT22;22070;50.922;5.430;2023-03-17T05:10:30;9.90;99.90
36002;DHT22;22070;50.922;5.430;2023-03-17T05:12:55;9.90;99.90
36002;DHT22;22070;50.922;5.430;2023-03-17T05:15:21;9.90;99.90
36002;DHT22;22070;50.922;5.430;2023-03-17T05:17:46;10.00;99.90
36002;DHT22;22070;50.922;5.430;2023-03-17T05:20:12;9.90;99.90
36002;DHT22;22070;50.922;5.430;2023-03-17T05:22:38;10.00;99.90
36002;DHT22;22070;50.922;5.430;2023-03-17T05:25:04;10.00;99.90
36002;DHT22;22070;50.922;5.430;2023-03-17T05:27:31;10.10;99.90
36002;DHT22;22070;50.922;5.430;2023-03-17T05:29:57;9.90;99.90
36002;DHT22;22070;50.922;5.430;2023-03-17T05:32:23;9.90;99.90
36002;DHT22;22070;50.922;5.430;2023-03-17T05:34:49;9.90;99.90
36002;DHT22;22070;50.922;5.430;2023-03-17T05:37:15;9.90;99.90
36002;DHT22;22070;50.922;5.430;2023-03-17T05:39:41;9.90;99.90
36002;DHT22;22070;50.922;5.430;2023-03-17T05:42:06;9.90;99.90
36002;DHT22;22070;50.922;5.430;2023-03-17T05:44:33;9.90;99.90
36002;DHT22;22070;50.922;5.430;2023-03-17T05:46:59;9.90;99.90
36002;DHT22;22070;50.922;5.430;2023-03-17T05:49:25;9.90;99.90
36002;DHT22;22070;50.922;5.430;2023-03-17T05:51:51;9.90;99.90
36002;DHT22;22070;50.922;5.430;2023-03-17T05:54:17;9.80;99.90
36002;DHT22;22070;50.922;5.430;2023-03-17T05:56:43;9.80;99.90
36002;DHT22;22070;50.922;5.430;2023-03-17T05:59:08;9.80;99.90
36002;DHT22;22070;50.922;5.430;2023-03-17T06:01:35;9.70;99.90
36002;DHT22;22070;50.922;5.430;2023-03-17T06:04:01;9.70;99.90
36002;DHT22;22070;50.922;5.430;2023-03-17T06:06:27;9.70;99.90
36002;DHT22;22070;50.922;5.430;2023-03-17T06:08:53;9.70;99.90
36002;DHT22;22070;50.922;5.430;2023-03-17T06:11:19;9.70;99.90
36002;DHT22;22070;50.922;5.430;2023-03-17T06:13:46;9.70;99.90
36002;DHT22;22070;50.922;5.430;2023-03-17T06:16:12;9.70;99.90
36002;DHT22;22070;50.922;5.430;2023-03-17T06:18:38;9.70;99.90
36002;DHT22;22070;50.922;5.430;2023-03-17T06:21:04;9.70;99.90
36002;DHT22;22070;50.922;5.430;2023-03-17T06:23:29;9.70;99.90
36002;DHT22;22070;50.922;5.430;2023-03-17T06:25:55;9.70;99.90
36002;DHT22;22070;50.922;5.430;2023-03-17T06:28:21;9.70;99.90
36002;DHT22;22070;50.922;5.430;2023-03-17T06:30:47;9.70;99.90
36002;DHT22;22070;50.922;5.430;2023-03-17T06:33:13;9.70;99.90
36002;DHT22;22070;50.922;5.430;2023-03-17T06:35:40;9.70;99.90
36002;DHT22;22070;50.922;5.430;2023-03-17T06:38:06;9.70;99.90
36002;DHT22;22070;50.922;5.430;2023-03-17T06:40:31;9.70;99.90
36002;DHT22;22070;50.922;5.430;2023-03-17T06:42:59;9.70;99.90
36002;DHT22;22070;50.922;5.430;2023-03-17T06:45:26;9.70;99.90
36002;DHT22;22070;50.922;5.430;2023-03-17T06:47:52;9.80;99.90
36002;DHT22;22070;50.922;5.430;2023-03-17T06:50:17;9.80;99.90
36002;DHT22;22070;50.922;5.430;2023-03-17T06:52:43;9.90;99.90
36002;DHT22;22070;50.922;5.430;2023-03-17T06:55:09;9.90;99.90
36002;DHT22;22070;50.922;5.430;2023-03-17T06:57:35;10.00;99.90
36002;DHT22;22070;50.922;5.430;2023-03-17T07:00:02;10.00;99.90
36002;DHT22;22070;50.922;5.430;2023-03-17T07:02:31;10.10;99.90
36002;DHT22;22070;50.922;5.430;2023-03-17T07:04:58;10.20;99.90
36002;DHT22;22070;50.922;5.430;2023-03-17T07:07:25;10.20;99.90
36002;DHT22;22070;50.922;5.430;2023-03-17T07:09:51;10.30;99.90
36002;DHT22;22070;50.922;5.430;2023-03-17T07:12:18;10.30;99.90
36002;DHT22;22070;50.922;5.430;2023-03-17T07:14:44;10.30;99.90
36002;DHT22;22070;50.922;5.430;2023-03-17T07:17:11;10.40;99.90
36002;DHT22;22070;50.922;5.430;2023-03-17T07:19:37;10.40;99.90
36002;DHT22;22070;50.922;5.430;2023-03-17T07:22:03;10.40;99.90
36002;DHT22;22070;50.922;5.430;2023-03-17T07:24:28;10.50;99.90
36002;DHT22;22070;50.922;5.430;2023-03-17T07:26:54;10.50;99.90
36002;DHT22;22070;50.922;5.430;2023-03-17T07:29:20;10.50;99.90
36002;DHT22;22070;50.922;5.430;2023-03-17T07:31:47;10.60;99.90
36002;DHT22;22070;50.922;5.430;2023-03-17T07:34:14;10.70;99.90
36002;DHT22;22070;50.922;5.430;2023-03-17T07:36:40;10.80;99.90
36002;DHT22;22070;50.922;5.430;2023-03-17T07:39:06;10.80;99.90
36002;DHT22;22070;50.922;5.430;2023-03-17T07:41:32;10.90;99.90
36002;DHT22;22070;50.922;5.430;2023-03-17T07:43:58;11.00;99.90
36002;DHT22;22070;50.922;5.430;2023-03-17T07:46:24;11.10;99.90
36002;DHT22;22070;50.922;5.430;2023-03-17T07:48:50;11.10;99.90
36002;DHT22;22070;50.922;5.430;2023-03-17T07:51:18;11.20;99.90
36002;DHT22;22070;50.922;5.430;2023-03-17T07:53:45;11.30;99.90
36002;DHT22;22070;50.922;5.430;2023-03-17T07:56:12;11.40;99.90
36002;DHT22;22070;50.922;5.430;2023-03-17T07:58:38;11.40;99.90
36002;DHT22;22070;50.922;5.430;2023-03-17T08:01:04;11.60;99.90
36002;DHT22;22070;50.922;5.430;2023-03-17T08:03:31;11.70;99.90
36002;DHT22;22070;50.922;5.430;2023-03-17T08:05:57;11.80;99.90
36002;DHT22;22070;50.922;5.430;2023-03-17T08:08:24;11.90;99.90
36002;DHT22;22070;50.922;5.430;2023-03-17T08:10:50;11.90;99.90
36002;DHT22;22070;50.922;5.430;2023-03-17T08:13:17;12.00;99.90
36002;DHT22;22070;50.922;5.430;2023-03-17T08:15:43;12.10;99.90
36002;DHT22;22070;50.922;5.430;2023-03-17T08:18:09;12.20;99.90
36002;DHT22;22070;50.922;5.430;2023-03-17T08:20:35;12.30;99.90
36002;DHT22;22070;50.922;5.430;2023-03-17T08:23:01;12.40;99.90
36002;DHT22;22070;50.922;5.430;2023-03-17T08:25:27;12.40;99.90
36002;DHT22;22070;50.922;5.430;2023-03-17T08:27:53;12.50;99.90
36002;DHT22;22070;50.922;5.430;2023-03-17T08:30:20;12.70;99.90
36002;DHT22;22070;50.922;5.430;2023-03-17T08:32:46;12.70;99.90
36002;DHT22;22070;50.922;5.430;2023-03-17T08:35:14;12.80;99.90
36002;DHT22;22070;50.922;5.430;2023-03-17T08:37:44;13.00;99.90
36002;DHT22;22070;50.922;5.430;2023-03-17T08:40:16;13.00;99.90
36002;DHT22;22070;50.922;5.430;2023-03-17T08:42:43;13.10;99.90
36002;DHT22;22070;50.922;5.430;2023-03-17T08:45:09;13.10;99.90
36002;DHT22;22070;50.922;5.430;2023-03-17T08:47:36;13.20;99.90
36002;DHT22;22070;50.922;5.430;2023-03-17T08:50:04;13.30;99.90
36002;DHT22;22070;50.922;5.430;2023-03-17T08:52:30;13.40;99.90
36002;DHT22;22070;50.922;5.430;2023-03-17T08:54:56;13.30;99.90
36002;DHT22;22070;50.922;5.430;2023-03-17T08:57:22;13.40;99.90
36002;DHT22;22070;50.922;5.430;2023-03-17T08:59:49;13.50;99.90
36002;DHT22;22070;50.922;5.430;2023-03-17T09:02:15;13.60;99.90
36002;DHT22;22070;50.922;5.430;2023-03-17T09:04:40;13.70;99.90
36002;DHT22;22070;50.922;5.430;2023-03-17T09:07:07;13.80;99.90
36002;DHT22;22070;50.922;5.430;2023-03-17T09:09:34;13.70;99.90
36002;DHT22;22070;50.922;5.430;2023-03-17T09:12:01;13.90;99.90
36002;DHT22;22070;50.922;5.430;2023-03-17T09:14:27;13.90;99.90
36002;DHT22;22070;50.922;5.430;2023-03-17T09:16:53;14.00;99.90
36002;DHT22;22070;50.922;5.430;2023-03-17T09:19:19;14.10;99.90
36002;DHT22;22070;50.922;5.430;2023-03-17T09:21:46;14.20;99.90
36002;DHT22;22070;50.922;5.430;2023-03-17T09:24:12;14.20;99.90
36002;DHT22;22070;50.922;5.430;2023-03-17T09:26:38;14.40;99.90
36002;DHT22;22070;50.922;5.430;2023-03-17T09:29:03;14.50;99.90
36002;DHT22;22070;50.922;5.430;2023-03-17T09:31:30;14.50;99.90
36002;DHT22;22070;50.922;5.430;2023-03-17T09:33:56;14.50;99.90
36002;DHT22;22070;50.922;5.430;2023-03-17T09:36:22;14.60;99.90
36002;DHT22;22070;50.922;5.430;2023-03-17T09:38:48;14.50;99.90
36002;DHT22;22070;50.922;5.430;2023-03-17T09:46:52;14.80;99.90
36002;DHT22;22070;50.922;5.430;2023-03-17T09:49:27;14.90;99.90
36002;DHT22;22070;50.922;5.430;2023-03-17T09:51:54;14.90;99.90
36002;DHT22;22070;50.922;5.430;2023-03-17T09:54:26;14.90;99.90
36002;DHT22;22070;50.922;5.430;2023-03-17T09:57:18;15.10;99.90
36002;DHT22;22070;50.922;5.430;2023-03-17T09:59:49;15.20;99.90
36002;DHT22;22070;50.922;5.430;2023-03-17T10:02:22;15.30;99.90
36002;DHT22;22070;50.922;5.430;2023-03-17T10:04:49;15.20;99.90
36002;DHT22;22070;50.922;5.430;2023-03-17T10:07:25;15.20;99.90
36002;DHT22;22070;50.922;5.430;2023-03-17T10:10:04;15.20;99.90
36002;DHT22;22070;50.922;5.430;2023-03-17T10:15:31;15.30;99.90
36002;DHT22;22070;50.922;5.430;2023-03-17T10:18:07;15.30;99.90
36002;DHT22;22070;50.922;5.430;2023-03-17T10:20:35;15.40;99.90
36002;DHT22;22070;50.922;5.430;2023-03-17T10:23:05;15.40;99.90
36002;DHT22;22070;50.922;5.430;2023-03-17T10:25:34;15.50;99.90
36002;DHT22;22070;50.922;5.430;2023-03-17T10:30:41;15.50;99.90
36002;DHT22;22070;50.922;5.430;2023-03-17T10:33:08;15.60;99.90
36002;DHT22;22070;50.922;5.430;2023-03-17T10:35:35;15.70;99.90
36002;DHT22;22070;50.922;5.430;2023-03-17T10:38:20;15.80;99.90
36002;DHT22;22070;50.922;5.430;2023-03-17T10:41:14;15.90;99.90
36002;DHT22;22070;50.922;5.430;2023-03-17T10:43:45;15.90;99.90
36002;DHT22;22070;50.922;5.430;2023-03-17T10:46:25;15.90;99.90
36002;DHT22;22070;50.922;5.430;2023-03-17T10:48:55;15.90;99.90
36002;DHT22;22070;50.922;5.430;2023-03-17T10:51:33;16.00;99.90
36002;DHT22;22070;50.922;5.430;2023-03-17T10:54:12;16.00;99.90
36002;DHT22;22070;50.922;5.430;2023-03-17T10:56:42;16.10;99.90
36002;DHT22;22070;50.922;5.430;2023-03-17T10:59:37;16.10;99.90
36002;DHT22;22070;50.922;5.430;2023-03-17T11:02:28;16.20;99.90
36002;DHT22;22070;50.922;5.430;2023-03-17T11:05:19;16.20;99.90
36002;DHT22;22070;50.922;5.430;2023-03-17T11:07:45;16.40;99.90
36002;DHT22;22070;50.922;5.430;2023-03-17T11:10:22;16.30;99.90
36002;DHT22;22070;50.922;5.430;2023-03-17T11:12:57;16.40;99.90
36002;DHT22;22070;50.922;5.430;2023-03-17T11:15:31;16.50;99.90
36002;DHT22;22070;50.922;5.430;2023-03-17T11:18:00;16.50;99.90
36002;DHT22;22070;50.922;5.430;2023-03-17T11:20:37;16.60;99.90
36002;DHT22;22070;50.922;5.430;2023-03-17T11:23:20;16.60;99.90
36002;DHT22;22070;50.922;5.430;2023-03-17T11:26:00;16.60;99.90
36002;DHT22;22070;50.922;5.430;2023-03-17T11:28:34;16.80;99.90
36002;DHT22;22070;50.922;5.430;2023-03-17T11:33:44;17.00;99.90
36002;DHT22;22070;50.922;5.430;2023-03-17T11:39:22;17.00;99.90
36002;DHT22;22070;50.922;5.430;2023-03-17T11:49:58;17.30;99.90
36002;DHT22;22070;50.922;5.430;2023-03-17T11:52:35;17.30;99.90
36002;DHT22;22070;50.922;5.430;2023-03-17T11:55:11;17.30;99.90
36002;DHT22;22070;50.922;5.430;2023-03-17T11:57:58;17.40;99.90
36002;DHT22;22070;50.922;5.430;2023-03-17T12:00:47;17.50;99.90
36002;DHT22;22070;50.922;5.430;2023-03-17T12:03:21;17.60;99.90
36002;DHT22;22070;50.922;5.430;2023-03-17T12:05:54;17.70;99.90
36002;DHT22;22070;50.922;5.430;2023-03-17T12:11:01;18.00;99.90
36002;DHT22;22070;50.922;5.430;2023-03-17T12:13:38;18.10;99.90
36002;DHT22;22070;50.922;5.430;2023-03-17T12:16:15;18.20;99.90
36002;DHT22;22070;50.922;5.430;2023-03-17T12:21:35;18.10;99.90
36002;DHT22;22070;50.922;5.430;2023-03-17T12:29:43;18.30;99.90
36002;DHT22;22070;50.922;5.430;2023-03-17T12:34:50;18.50;99.90
36002;DHT22;22070;50.922;5.430;2023-03-17T12:37:17;18.50;99.90
36002;DHT22;22070;50.922;5.430;2023-03-17T12:39:46;18.70;99.90
36002;DHT22;22070;50.922;5.430;2023-03-17T12:42:55;18.70;99.90
36002;DHT22;22070;50.922;5.430;2023-03-17T12:45:53;18.70;99.90
36002;DHT22;22070;50.922;5.430;2023-03-17T12:51:13;18.70;99.90
36002;DHT22;22070;50.922;5.430;2023-03-17T12:53:43;18.80;99.90
36002;DHT22;22070;50.922;5.430;2023-03-17T12:56:31;18.80;99.90
36002;DHT22;22070;50.922;5.430;2023-03-17T12:59:04;18.90;99.90
36002;DHT22;22070;50.922;5.430;2023-03-17T13:01:42;18.90;99.90
36002;DHT22;22070;50.922;5.430;2023-03-17T13:11:57;18.90;99.90
36002;DHT22;22070;50.922;5.430;2023-03-17T13:14:44;19.00;99.90
36002;DHT22;22070;50.922;5.430;2023-03-17T13:41:54;19.60;99.90
36002;DHT22;22070;50.922;5.430;2023-03-17T13:47:25;19.70;99.90
36002;DHT22;22070;50.922;5.430;2023-03-17T13:49:53;19.70;99.90
36002;DHT22;22070;50.922;5.430;2023-03-17T13:52:33;19.70;99.90
36002;DHT22;22070;50.922;5.430;2023-03-17T14:00:39;19.60;99.90
36002;DHT22;22070;50.922;5.430;2023-03-17T14:03:10;19.50;99.90
36002;DHT22;22070;50.922;5.430;2023-03-17T14:05:38;19.60;99.90
36002;DHT22;22070;50.922;5.430;2023-03-17T14:08:14;19.70;99.90
36002;DHT22;22070;50.922;5.430;2023-03-17T14:10:41;19.70;99.90
36002;DHT22;22070;50.922;5.430;2023-03-17T14:16:11;19.70;99.90
36002;DHT22;22070;50.922;5.430;2023-03-17T14:18:40;19.60;99.90
36002;DHT22;22070;50.922;5.430;2023-03-17T14:21:23;19.40;99.90
36002;DHT22;22070;50.922;5.430;2023-03-17T14:23:57;19.40;99.90
36002;DHT22;22070;50.922;5.430;2023-03-17T14:26:25;19.20;99.90
36002;DHT22;22070;50.922;5.430;2023-03-17T14:28:51;19.20;99.90
36002;DHT22;22070;50.922;5.430;2023-03-17T14:31:23;18.90;99.90
36002;DHT22;22070;50.922;5.430;2023-03-17T14:33:55;19.00;99.90
36002;DHT22;22070;50.922;5.430;2023-03-17T14:36:22;19.10;99.90
36002;DHT22;22070;50.922;5.430;2023-03-17T14:38:50;19.20;99.90
36002;DHT22;22070;50.922;5.430;2023-03-17T14:41:22;19.20;99.90
36002;DHT22;22070;50.922;5.430;2023-03-17T14:43:49;19.10;99.90
36002;DHT22;22070;50.922;5.430;2023-03-17T14:48:50;19.10;99.90
36002;DHT22;22070;50.922;5.430;2023-03-17T14:51:26;18.90;99.90
36002;DHT22;22070;50.922;5.430;2023-03-17T14:53:57;18.80;99.90
36002;DHT22;22070;50.922;5.430;2023-03-17T14:56:30;18.70;99.90
36002;DHT22;22070;50.922;5.430;2023-03-17T14:59:14;18.70;99.90
36002;DHT22;22070;50.922;5.430;2023-03-17T15:01:43;18.70;99.90
36002;DHT22;22070;50.922;5.430;2023-03-17T15:04:25;18.70;99.90
36002;DHT22;22070;50.922;5.430;2023-03-17T15:06:54;18.70;99.90
36002;DHT22;22070;50.922;5.430;2023-03-17T15:12:02;18.70;99.90
36002;DHT22;22070;50.922;5.430;2023-03-17T15:14:32;18.70;99.90
36002;DHT22;22070;50.922;5.430;2023-03-17T15:17:01;18.70;99.90
36002;DHT22;22070;50.922;5.430;2023-03-17T15:20:29;18.60;99.90
36002;DHT22;22070;50.922;5.430;2023-03-17T15:22:28;18.60;99.90
36002;DHT22;22070;50.922;5.430;2023-03-17T15:25:13;18.50;99.90
36002;DHT22;22070;50.922;5.430;2023-03-17T15:27:41;18.30;99.90
36002;DHT22;22070;50.922;5.430;2023-03-17T15:30:07;18.20;99.90
36002;DHT22;22070;50.922;5.430;2023-03-17T15:32:33;18.20;99.90
36002;DHT22;22070;50.922;5.430;2023-03-17T15:34:59;18.10;99.90
36002;DHT22;22070;50.922;5.430;2023-03-17T15:37:29;18.10;99.90
36002;DHT22;22070;50.922;5.430;2023-03-17T15:39:57;18.10;99.90
36002;DHT22;22070;50.922;5.430;2023-03-17T15:42:23;18.00;99.90
36002;DHT22;22070;50.922;5.430;2023-03-17T15:44:50;17.90;99.90
36002;DHT22;22070;50.922;5.430;2023-03-17T15:47:18;17.80;99.90
36002;DHT22;22070;50.922;5.430;2023-03-17T15:49:45;17.80;99.90
36002;DHT22;22070;50.922;5.430;2023-03-17T15:52:15;17.80;99.90
36002;DHT22;22070;50.922;5.430;2023-03-17T15:54:41;17.80;99.90
36002;DHT22;22070;50.922;5.430;2023-03-17T15:57:10;17.80;99.90
36002;DHT22;22070;50.922;5.430;2023-03-17T15:59:36;17.70;99.90
36002;DHT22;22070;50.922;5.430;2023-03-17T16:02:02;17.70;99.90
36002;DHT22;22070;50.922;5.430;2023-03-17T16:04:28;17.70;99.90
36002;DHT22;22070;50.922;5.430;2023-03-17T16:06:54;17.60;99.90
36002;DHT22;22070;50.922;5.430;2023-03-17T16:09:19;17.50;99.90
36002;DHT22;22070;50.922;5.430;2023-03-17T16:11:45;17.60;99.90
36002;DHT22;22070;50.922;5.430;2023-03-17T16:14:11;17.60;99.90
36002;DHT22;22070;50.922;5.430;2023-03-17T16:16:39;17.70;99.90
36002;DHT22;22070;50.922;5.430;2023-03-17T16:19:18;17.60;99.90
36002;DHT22;22070;50.922;5.430;2023-03-17T16:21:45;17.60;99.90
36002;DHT22;22070;50.922;5.430;2023-03-17T16:24:19;17.50;99.90
36002;DHT22;22070;50.922;5.430;2023-03-17T16:26:46;17.40;99.90
36002;DHT22;22070;50.922;5.430;2023-03-17T16:29:15;17.30;99.90
36002;DHT22;22070;50.922;5.430;2023-03-17T16:31:43;17.40;99.90
36002;DHT22;22070;50.922;5.430;2023-03-17T16:34:16;17.30;99.90
36002;DHT22;22070;50.922;5.430;2023-03-17T16:36:42;17.30;99.90
36002;DHT22;22070;50.922;5.430;2023-03-17T16:39:18;17.30;99.90
36002;DHT22;22070;50.922;5.430;2023-03-17T16:41:47;17.20;99.90
36002;DHT22;22070;50.922;5.430;2023-03-17T16:44:15;17.30;99.90
36002;DHT22;22070;50.922;5.430;2023-03-17T16:46:41;17.30;99.90
36002;DHT22;22070;50.922;5.430;2023-03-17T16:49:14;17.30;99.90
36002;DHT22;22070;50.922;5.430;2023-03-17T16:51:41;17.30;99.90
36002;DHT22;22070;50.922;5.430;2023-03-17T16:54:08;17.30;99.90
36002;DHT22;22070;50.922;5.430;2023-03-17T16:56:33;17.20;99.90
36002;DHT22;22070;50.922;5.430;2023-03-17T16:58:59;17.10;99.90
36002;DHT22;22070;50.922;5.430;2023-03-17T17:01:27;17.00;99.90
36002;DHT22;22070;50.922;5.430;2023-03-17T17:03:54;16.80;99.90
36002;DHT22;22070;50.922;5.430;2023-03-17T17:06:20;16.80;99.90
36002;DHT22;22070;50.922;5.430;2023-03-17T17:08:48;16.80;99.90
36002;DHT22;22070;50.922;5.430;2023-03-17T17:11:15;16.90;99.90
36002;DHT22;22070;50.922;5.430;2023-03-17T17:13:44;16.90;99.90
36002;DHT22;22070;50.922;5.430;2023-03-17T17:18:42;16.80;99.90
36002;DHT22;22070;50.922;5.430;2023-03-17T17:21:08;16.70;99.90
36002;DHT22;22070;50.922;5.430;2023-03-17T17:23:33;16.60;99.90
36002;DHT22;22070;50.922;5.430;2023-03-17T17:25:59;16.60;99.90
36002;DHT22;22070;50.922;5.430;2023-03-17T17:28:24;16.60;99.90
36002;DHT22;22070;50.922;5.430;2023-03-17T17:30:51;16.50;99.90